sensor_id;sensor_type;location;lat;lon;timestamp;P1;durP1;ratioP1;P2;durP2;ratioP2
3645;SDS011;1839;48.060;11.662;2022-07-29T05:01:03;10.50;;;1.90;;
3645;SDS011;1839;48.060;11.662;2022-07-29T05:03:30;10.60;;;2.40;;
3645;SDS011;1839;48.060;11.662;2022-07-29T05:05:57;11.07;;;2.33;;
3645;SDS011;1839;48.060;11.662;2022-07-29T05:08:25;9.37;;;1.90;;
3645;SDS011;1839;48.060;11.662;2022-07-29T05:10:52;10.10;;;2.00;;
3645;SDS011;1839;48.060;11.662;2022-07-29T05:13:19;23.47;;;2.47;;
3645;SDS011;1839;48.060;11.662;2022-07-29T05:15:46;8.77;;;1.80;;
3645;SDS011;1839;48.060;11.662;2022-07-29T05:18:15;10.20;;;2.23;;
3645;SDS011;1839;48.060;11.662;2022-07-29T05:20:42;8.97;;;1.70;;
3645;SDS011;1839;48.060;11.662;2022-07-29T05:23:09;10.27;;;1.80;;
3645;SDS011;1839;48.060;11.662;2022-07-29T05:25:37;8.57;;;1.83;;
3645;SDS011;1839;48.060;11.662;2022-07-29T05:28:05;10.53;;;2.00;;
3645;SDS011;1839;48.060;11.662;2022-07-29T05:30:32;9.53;;;2.17;;
3645;SDS011;1839;48.060;11.662;2022-07-29T05:32:59;8.00;;;1.90;;
3645;SDS011;1839;48.060;11.662;2022-07-29T05:35:28;8.57;;;2.00;;
3645;SDS011;1839;48.060;11.662;2022-07-29T05:37:55;8.10;;;1.87;;
3645;SDS011;1839;48.060;11.662;2022-07-29T05:40:22;13.40;;;2.10;;
3645;SDS011;1839;48.060;11.662;2022-07-29T05:42:49;9.10;;;2.40;;
3645;SDS011;1839;48.060;11.662;2022-07-29T05:45:16;8.57;;;2.03;;
3645;SDS011;1839;48.060;11.662;2022-07-29T05:47:44;10.33;;;2.47;;
3645;SDS011;1839;48.060;11.662;2022-07-29T05:50:11;11.67;;;2.10;;
3645;SDS011;1839;48.060;11.662;2022-07-29T05:52:40;10.60;;;2.23;;
3645;SDS011;1839;48.060;11.662;2022-07-29T05:55:08;12.97;;;2.10;;
3645;SDS011;1839;48.060;11.662;2022-07-29T05:57:35;11.27;;;2.40;;
3645;SDS011;1839;48.060;11.662;2022-07-29T06:00:02;9.90;;;2.20;;
3645;SDS011;1839;48.060;11.662;2022-07-29T06:02:30;9.63;;;2.17;;
3645;SDS011;1839;48.060;11.662;2022-07-29T06:04:57;9.20;;;2.10;;
3645;SDS011;1839;48.060;11.662;2022-07-29T06:07:24;8.03;;;1.83;;
3645;SDS011;1839;48.060;11.662;2022-07-29T06:09:53;14.83;;;2.63;;
3645;SDS011;1839;48.060;11.662;2022-07-29T06:12:20;11.43;;;2.40;;
3645;SDS011;1839;48.060;11.662;2022-07-29T06:14:47;14.03;;;2.23;;
3645;SDS011;1839;48.060;11.662;2022-07-29T06:17:15;14.23;;;2.03;;
3645;SDS011;1839;48.060;11.662;2022-07-29T06:19:42;10.37;;;2.80;;
3645;SDS011;1839;48.060;11.662;2022-07-29T06:22:09;8.40;;;2.27;;
3645;SDS011;1839;48.060;11.662;2022-07-29T06:24:37;7.80;;;2.13;;
3645;SDS011;1839;48.060;11.662;2022-07-29T06:27:10;8.40;;;2.07;;
3645;SDS011;1839;48.060;11.662;2022-07-29T06:29:37;8.60;;;2.07;;
3645;SDS011;1839;48.060;11.662;2022-07-29T06:32:04;10.00;;;1.90;;
3645;SDS011;1839;48.060;11.662;2022-07-29T06:34:34;8.57;;;1.90;;
3645;SDS011;1839;48.060;11.662;2022-07-29T06:37:05;8.20;;;1.90;;
3645;SDS011;1839;48.060;11.662;2022-07-29T06:39:33;8.43;;;2.20;;
3645;SDS011;1839;48.060;11.662;2022-07-29T06:42:00;9.20;;;1.83;;
3645;SDS011;1839;48.060;11.662;2022-07-29T06:44:28;9.27;;;1.93;;
3645;SDS011;1839;48.060;11.662;2022-07-29T06:46:56;8.50;;;2.20;;
3645;SDS011;1839;48.060;11.662;2022-07-29T06:49:23;8.30;;;1.80;;
3645;SDS011;1839;48.060;11.662;2022-07-29T06:51:51;7.67;;;1.60;;
3645;SDS011;1839;48.060;11.662;2022-07-29T06:54:18;7.00;;;1.70;;
3645;SDS011;1839;48.060;11.662;2022-07-29T06:56:46;7.63;;;1.93;;
3645;SDS011;1839;48.060;11.662;2022-07-29T06:59:13;8.67;;;2.13;;
3645;SDS011;1839;48.060;11.662;2022-07-29T07:01:42;7.13;;;1.60;;
3645;SDS011;1839;48.060;11.662;2022-07-29T07:04:10;9.60;;;1.70;;
3645;SDS011;1839;48.060;11.662;2022-07-29T07:06:38;6.87;;;1.67;;
3645;SDS011;1839;48.060;11.662;2022-07-29T07:09:05;8.40;;;2.10;;
3645;SDS011;1839;48.060;11.662;2022-07-29T07:11:33;8.47;;;2.13;;
3645;SDS011;1839;48.060;11.662;2022-07-29T07:14:00;12.03;;;2.20;;
3645;SDS011;1839;48.060;11.662;2022-07-29T07:16:27;6.60;;;1.60;;
3645;SDS011;1839;48.060;11.662;2022-07-29T07:18:56;8.60;;;1.53;;
3645;SDS011;1839;48.060;11.662;2022-07-29T07:21:23;9.17;;;2.07;;
3645;SDS011;1839;48.060;11.662;2022-07-29T07:23:50;11.63;;;1.80;;
3645;SDS011;1839;48.060;11.662;2022-07-29T07:26:17;8.40;;;1.80;;
3645;SDS011;1839;48.060;11.662;2022-07-29T07:28:44;7.87;;;1.77;;
3645;SDS011;1839;48.060;11.662;2022-07-29T07:31:11;9.03;;;1.67;;
3645;SDS011;1839;48.060;11.662;2022-07-29T07:33:39;6.43;;;1.40;;
3645;SDS011;1839;48.060;11.662;2022-07-29T07:36:07;7.20;;;1.40;;
3645;SDS011;1839;48.060;11.662;2022-07-29T07:38:34;9.70;;;1.50;;
3645;SDS011;1839;48.060;11.662;2022-07-29T07:41:02;11.70;;;1.93;;
3645;SDS011;1839;48.060;11.662;2022-07-29T07:43:29;6.63;;;1.70;;
3645;SDS011;1839;48.060;11.662;2022-07-29T07:45:56;6.20;;;1.70;;
3645;SDS011;1839;48.060;11.662;2022-07-29T07:48:23;6.90;;;1.77;;
3645;SDS011;1839;48.060;11.662;2022-07-29T07:50:51;6.90;;;1.57;;
3645;SDS011;1839;48.060;11.662;2022-07-29T07:53:19;6.47;;;1.40;;
3645;SDS011;1839;48.060;11.662;2022-07-29T07:55:46;6.10;;;1.50;;
3645;SDS011;1839;48.060;11.662;2022-07-29T07:58:13;6.23;;;1.60;;
3645;SDS011;1839;48.060;11.662;2022-07-29T08:00:41;6.27;;;1.70;;
3645;SDS011;1839;48.060;11.662;2022-07-29T08:03:08;6.20;;;1.67;;
3645;SDS011;1839;48.060;11.662;2022-07-29T08:05:37;6.60;;;1.77;;
3645;SDS011;1839;48.060;11.662;2022-07-29T08:08:05;8.10;;;1.57;;
3645;SDS011;1839;48.060;11.662;2022-07-29T08:10:34;6.63;;;1.50;;
3645;SDS011;1839;48.060;11.662;2022-07-29T08:13:21;5.83;;;1.50;;
3645;SDS011;1839;48.060;11.662;2022-07-29T08:15:48;8.27;;;1.63;;
3645;SDS011;1839;48.060;11.662;2022-07-29T08:18:22;8.80;;;1.57;;
3645;SDS011;1839;48.060;11.662;2022-07-29T08:20:50;6.60;;;1.80;;
3645;SDS011;1839;48.060;11.662;2022-07-29T08:23:17;6.30;;;1.63;;
3645;SDS011;1839;48.060;11.662;2022-07-29T08:25:46;6.07;;;1.57;;
3645;SDS011;1839;48.060;11.662;2022-07-29T08:28:13;6.80;;;1.50;;
3645;SDS011;1839;48.060;11.662;2022-07-29T08:30:41;6.17;;;1.47;;
3645;SDS011;1839;48.060;11.662;2022-07-29T08:33:08;10.20;;;1.80;;
3645;SDS011;1839;48.060;11.662;2022-07-29T08:35:35;6.93;;;1.77;;
3645;SDS011;1839;48.060;11.662;2022-07-29T08:38:02;7.50;;;1.80;;
3645;SDS011;1839;48.060;11.662;2022-07-29T08:40:29;5.93;;;1.70;;
3645;SDS011;1839;48.060;11.662;2022-07-29T08:42:58;5.47;;;1.50;;
3645;SDS011;1839;48.060;11.662;2022-07-29T08:45:26;6.60;;;1.40;;
3645;SDS011;1839;48.060;11.662;2022-07-29T08:47:54;5.70;;;1.70;;
3645;SDS011;1839;48.060;11.662;2022-07-29T08:50:22;39.10;;;3.23;;
3645;SDS011;1839;48.060;11.662;2022-07-29T08:52:49;6.80;;;1.80;;
3645;SDS011;1839;48.060;11.662;2022-07-29T08:55:17;7.90;;;2.43;;
3645;SDS011;1839;48.060;11.662;2022-07-29T08:57:44;5.97;;;1.53;;
3645;SDS011;1839;48.060;11.662;2022-07-29T09:00:13;10.17;;;1.53;;
3645;SDS011;1839;48.060;11.662;2022-07-29T09:02:42;5.23;;;1.60;;
3645;SDS011;1839;48.060;11.662;2022-07-29T09:05:12;7.90;;;2.17;;
3645;SDS011;1839;48.060;11.662;2022-07-29T09:07:39;8.60;;;2.60;;
3645;SDS011;1839;48.060;11.662;2022-07-29T09:10:08;6.63;;;2.20;;
3645;SDS011;1839;48.060;11.662;2022-07-29T09:12:35;12.50;;;4.20;;
3645;SDS011;1839;48.060;11.662;2022-07-29T09:15:03;9.83;;;2.47;;
3645;SDS011;1839;48.060;11.662;2022-07-29T09:17:40;6.90;;;2.20;;
3645;SDS011;1839;48.060;11.662;2022-07-29T09:20:08;9.40;;;2.10;;
3645;SDS011;1839;48.060;11.662;2022-07-29T09:22:35;6.37;;;2.33;;
3645;SDS011;1839;48.060;11.662;2022-07-29T09:25:03;7.07;;;2.07;;
3645;SDS011;1839;48.060;11.662;2022-07-29T09:27:30;5.73;;;1.77;;
3645;SDS011;1839;48.060;11.662;2022-07-29T09:29:59;8.47;;;2.20;;
3645;SDS011;1839;48.060;11.662;2022-07-29T09:32:26;7.20;;;2.20;;
3645;SDS011;1839;48.060;11.662;2022-07-29T09:37:37;9.03;;;2.23;;
3645;SDS011;1839;48.060;11.662;2022-07-29T09:40:10;11.83;;;2.10;;
3645;SDS011;1839;48.060;11.662;2022-07-29T09:42:38;6.00;;;1.70;;
3645;SDS011;1839;48.060;11.662;2022-07-29T09:45:05;7.43;;;2.20;;
3645;SDS011;1839;48.060;11.662;2022-07-29T09:47:40;12.93;;;2.70;;
3645;SDS011;1839;48.060;11.662;2022-07-29T09:50:07;5.87;;;1.80;;
3645;SDS011;1839;48.060;11.662;2022-07-29T09:52:41;5.97;;;1.70;;
3645;SDS011;1839;48.060;11.662;2022-07-29T09:55:12;7.10;;;2.10;;
3645;SDS011;1839;48.060;11.662;2022-07-29T09:57:40;6.27;;;2.40;;
3645;SDS011;1839;48.060;11.662;2022-07-29T10:00:07;7.23;;;2.57;;
3645;SDS011;1839;48.060;11.662;2022-07-29T10:02:36;7.67;;;2.53;;
3645;SDS011;1839;48.060;11.662;2022-07-29T10:05:04;7.70;;;2.20;;
3645;SDS011;1839;48.060;11.662;2022-07-29T10:07:43;8.27;;;2.40;;
3645;SDS011;1839;48.060;11.662;2022-07-29T10:10:10;6.88;;;2.58;;
3645;SDS011;1839;48.060;11.662;2022-07-29T10:12:49;7.05;;;2.40;;
3645;SDS011;1839;48.060;11.662;2022-07-29T10:15:17;9.90;;;2.08;;
3645;SDS011;1839;48.060;11.662;2022-07-29T10:17:45;6.23;;;2.13;;
3645;SDS011;1839;48.060;11.662;2022-07-29T10:20:13;10.10;;;2.37;;
3645;SDS011;1839;48.060;11.662;2022-07-29T10:22:40;15.00;;;2.37;;
3645;SDS011;1839;48.060;11.662;2022-07-29T10:25:09;7.30;;;2.50;;
3645;SDS011;1839;48.060;11.662;2022-07-29T10:27:36;6.33;;;2.33;;
3645;SDS011;1839;48.060;11.662;2022-07-29T10:30:06;8.93;;;2.13;;
3645;SDS011;1839;48.060;11.662;2022-07-29T10:32:39;11.20;;;2.90;;
3645;SDS011;1839;48.060;11.662;2022-07-29T10:35:12;8.57;;;2.43;;
3645;SDS011;1839;48.060;11.662;2022-07-29T10:37:46;8.93;;;2.70;;
3645;SDS011;1839;48.060;11.662;2022-07-29T10:40:21;17.83;;;2.70;;
3645;SDS011;1839;48.060;11.662;2022-07-29T10:43:08;19.47;;;3.07;;
3645;SDS011;1839;48.060;11.662;2022-07-29T10:45:43;37.70;;;3.80;;
3645;SDS011;1839;48.060;11.662;2022-07-29T10:48:11;10.63;;;3.17;;
3645;SDS011;1839;48.060;11.662;2022-07-29T10:50:58;23.10;;;4.13;;
3645;SDS011;1839;48.060;11.662;2022-07-29T10:53:45;10.27;;;2.80;;
3645;SDS011;1839;48.060;11.662;2022-07-29T10:56:25;33.73;;;4.13;;
3645;SDS011;1839;48.060;11.662;2022-07-29T11:01:40;6.17;;;2.10;;
3645;SDS011;1839;48.060;11.662;2022-07-29T11:04:07;6.20;;;2.23;;
3645;SDS011;1839;48.060;11.662;2022-07-29T11:09:17;7.97;;;2.60;;
3645;SDS011;1839;48.060;11.662;2022-07-29T11:11:45;17.20;;;3.63;;
3645;SDS011;1839;48.060;11.662;2022-07-29T11:14:12;6.50;;;2.70;;
3645;SDS011;1839;48.060;11.662;2022-07-29T11:17:00;6.43;;;2.40;;
3645;SDS011;1839;48.060;11.662;2022-07-29T11:19:32;7.28;;;1.80;;
3645;SDS011;1839;48.060;11.662;2022-07-29T11:22:00;8.60;;;2.70;;
3645;SDS011;1839;48.060;11.662;2022-07-29T11:24:28;12.98;;;2.33;;
3645;SDS011;1839;48.060;11.662;2022-07-29T11:27:10;7.75;;;2.28;;
3645;SDS011;1839;48.060;11.662;2022-07-29T11:29:39;6.45;;;1.75;;
3645;SDS011;1839;48.060;11.662;2022-07-29T11:32:11;6.40;;;2.03;;
3645;SDS011;1839;48.060;11.662;2022-07-29T11:34:39;6.80;;;2.05;;
3645;SDS011;1839;48.060;11.662;2022-07-29T11:37:14;15.13;;;2.25;;
3645;SDS011;1839;48.060;11.662;2022-07-29T11:39:41;10.65;;;2.38;;
3645;SDS011;1839;48.060;11.662;2022-07-29T11:44:55;7.25;;;2.10;;
3645;SDS011;1839;48.060;11.662;2022-07-29T11:47:24;6.20;;;2.20;;
3645;SDS011;1839;48.060;11.662;2022-07-29T11:49:52;92.65;;;7.68;;
3645;SDS011;1839;48.060;11.662;2022-07-29T11:52:20;11.02;;;2.40;;
3645;SDS011;1839;48.060;11.662;2022-07-29T11:54:48;6.32;;;2.40;;
3645;SDS011;1839;48.060;11.662;2022-07-29T11:57:16;5.28;;;2.03;;
3645;SDS011;1839;48.060;11.662;2022-07-29T11:59:44;6.05;;;1.85;;
3645;SDS011;1839;48.060;11.662;2022-07-29T12:02:12;5.97;;;1.90;;
3645;SDS011;1839;48.060;11.662;2022-07-29T12:04:49;11.68;;;1.80;;
3645;SDS011;1839;48.060;11.662;2022-07-29T12:07:16;4.60;;;1.80;;
3645;SDS011;1839;48.060;11.662;2022-07-29T12:09:49;8.52;;;1.75;;
3645;SDS011;1839;48.060;11.662;2022-07-29T12:12:17;5.68;;;1.70;;
3645;SDS011;1839;48.060;11.662;2022-07-29T12:14:44;3.90;;;1.50;;
3645;SDS011;1839;48.060;11.662;2022-07-29T12:17:24;7.95;;;2.17;;
3645;SDS011;1839;48.060;11.662;2022-07-29T12:19:53;5.45;;;1.67;;
3645;SDS011;1839;48.060;11.662;2022-07-29T12:22:24;5.72;;;2.20;;
3645;SDS011;1839;48.060;11.662;2022-07-29T12:24:52;9.05;;;2.10;;
3645;SDS011;1839;48.060;11.662;2022-07-29T12:27:19;5.22;;;1.77;;
3645;SDS011;1839;48.060;11.662;2022-07-29T12:29:54;5.38;;;1.83;;
3645;SDS011;1839;48.060;11.662;2022-07-29T12:32:22;5.18;;;1.80;;
3645;SDS011;1839;48.060;11.662;2022-07-29T12:34:49;6.28;;;1.70;;
3645;SDS011;1839;48.060;11.662;2022-07-29T12:37:18;7.03;;;2.20;;
3645;SDS011;1839;48.060;11.662;2022-07-29T12:39:46;6.78;;;1.90;;
3645;SDS011;1839;48.060;11.662;2022-07-29T12:42:13;5.88;;;2.13;;
3645;SDS011;1839;48.060;11.662;2022-07-29T12:44:45;5.95;;;2.10;;
3645;SDS011;1839;48.060;11.662;2022-07-29T12:47:12;20.75;;;3.15;;
3645;SDS011;1839;48.060;11.662;2022-07-29T12:49:39;4.80;;;1.63;;
3645;SDS011;1839;48.060;11.662;2022-07-29T12:54:54;4.93;;;1.65;;
3645;SDS011;1839;48.060;11.662;2022-07-29T12:57:21;5.45;;;1.67;;
3645;SDS011;1839;48.060;11.662;2022-07-29T12:59:58;6.20;;;1.88;;
3645;SDS011;1839;48.060;11.662;2022-07-29T13:02:26;9.65;;;1.60;;
3645;SDS011;1839;48.060;11.662;2022-07-29T13:04:56;5.78;;;1.60;;
3645;SDS011;1839;48.060;11.662;2022-07-29T13:07:24;4.35;;;1.73;;
3645;SDS011;1839;48.060;11.662;2022-07-29T13:09:53;4.32;;;1.50;;
3645;SDS011;1839;48.060;11.662;2022-07-29T13:12:21;5.90;;;2.15;;
3645;SDS011;1839;48.060;11.662;2022-07-29T13:14:48;6.15;;;2.35;;
3645;SDS011;1839;48.060;11.662;2022-07-29T13:17:16;9.93;;;1.83;;
3645;SDS011;1839;48.060;11.662;2022-07-29T13:19:44;4.35;;;1.42;;
3645;SDS011;1839;48.060;11.662;2022-07-29T13:22:12;31.30;;;2.40;;
3645;SDS011;1839;48.060;11.662;2022-07-29T13:24:46;8.90;;;2.38;;
3645;SDS011;1839;48.060;11.662;2022-07-29T13:27:15;5.53;;;1.67;;
3645;SDS011;1839;48.060;11.662;2022-07-29T13:29:43;7.75;;;2.33;;
3645;SDS011;1839;48.060;11.662;2022-07-29T13:32:10;10.93;;;2.40;;
3645;SDS011;1839;48.060;11.662;2022-07-29T13:34:38;11.00;;;2.20;;
3645;SDS011;1839;48.060;11.662;2022-07-29T13:37:05;9.95;;;2.17;;
3645;SDS011;1839;48.060;11.662;2022-07-29T13:39:33;6.77;;;2.13;;
3645;SDS011;1839;48.060;11.662;2022-07-29T13:42:00;8.10;;;2.00;;
3645;SDS011;1839;48.060;11.662;2022-07-29T13:44:28;26.53;;;3.00;;
3645;SDS011;1839;48.060;11.662;2022-07-29T13:46:55;7.37;;;2.33;;
3645;SDS011;1839;48.060;11.662;2022-07-29T13:49:23;6.20;;;1.90;;
3645;SDS011;1839;48.060;11.662;2022-07-29T13:51:51;6.77;;;2.10;;
3645;SDS011;1839;48.060;11.662;2022-07-29T13:54:18;6.10;;;2.00;;
3645;SDS011;1839;48.060;11.662;2022-07-29T13:56:45;9.43;;;2.30;;
3645;SDS011;1839;48.060;11.662;2022-07-29T13:59:12;8.73;;;1.90;;
3645;SDS011;1839;48.060;11.662;2022-07-29T14:01:41;9.83;;;2.50;;
3645;SDS011;1839;48.060;11.662;2022-07-29T14:04:08;7.87;;;2.53;;
3645;SDS011;1839;48.060;11.662;2022-07-29T14:06:36;6.60;;;2.00;;
3645;SDS011;1839;48.060;11.662;2022-07-29T14:09:03;6.03;;;2.07;;
3645;SDS011;1839;48.060;11.662;2022-07-29T14:11:33;5.70;;;2.17;;
3645;SDS011;1839;48.060;11.662;2022-07-29T14:14:00;8.77;;;2.47;;
3645;SDS011;1839;48.060;11.662;2022-07-29T14:16:28;6.50;;;2.43;;
3645;SDS011;1839;48.060;11.662;2022-07-29T14:18:56;11.13;;;2.40;;
3645;SDS011;1839;48.060;11.662;2022-07-29T14:21:23;6.78;;;2.47;;
3645;SDS011;1839;48.060;11.662;2022-07-29T14:23:50;6.38;;;1.90;;
3645;SDS011;1839;48.060;11.662;2022-07-29T14:26:19;6.18;;;2.30;;
3645;SDS011;1839;48.060;11.662;2022-07-29T14:28:46;5.72;;;2.08;;
3645;SDS011;1839;48.060;11.662;2022-07-29T14:31:14;6.70;;;2.40;;
3645;SDS011;1839;48.060;11.662;2022-07-29T14:33:41;6.72;;;2.28;;
3645;SDS011;1839;48.060;11.662;2022-07-29T14:36:10;8.10;;;2.30;;
3645;SDS011;1839;48.060;11.662;2022-07-29T14:38:37;12.85;;;2.10;;
3645;SDS011;1839;48.060;11.662;2022-07-29T14:41:05;6.50;;;2.00;;
3645;SDS011;1839;48.060;11.662;2022-07-29T14:43:33;6.53;;;2.15;;
3645;SDS011;1839;48.060;11.662;2022-07-29T14:46:00;7.85;;;2.22;;
3645;SDS011;1839;48.060;11.662;2022-07-29T14:48:27;12.82;;;2.38;;
3645;SDS011;1839;48.060;11.662;2022-07-29T14:50:54;5.65;;;1.85;;
3645;SDS011;1839;48.060;11.662;2022-07-29T14:53:23;6.50;;;2.10;;
3645;SDS011;1839;48.060;11.662;2022-07-29T14:55:50;7.97;;;2.08;;
3645;SDS011;1839;48.060;11.662;2022-07-29T14:58:18;6.03;;;2.20;;
3645;SDS011;1839;48.060;11.662;2022-07-29T15:00:47;5.60;;;1.90;;
3645;SDS011;1839;48.060;11.662;2022-07-29T15:03:14;7.43;;;1.85;;
3645;SDS011;1839;48.060;11.662;2022-07-29T15:05:41;7.25;;;2.58;;
3645;SDS011;1839;48.060;11.662;2022-07-29T15:08:08;13.93;;;2.40;;
3645;SDS011;1839;48.060;11.662;2022-07-29T15:10:37;6.70;;;2.95;;
3645;SDS011;1839;48.060;11.662;2022-07-29T15:13:04;5.85;;;2.20;;
3645;SDS011;1839;48.060;11.662;2022-07-29T15:15:31;23.70;;;5.35;;
3645;SDS011;1839;48.060;11.662;2022-07-29T15:17:59;10.77;;;3.40;;
3645;SDS011;1839;48.060;11.662;2022-07-29T15:20:26;6.18;;;2.47;;
3645;SDS011;1839;48.060;11.662;2022-07-29T15:22:53;6.03;;;2.20;;
3645;SDS011;1839;48.060;11.662;2022-07-29T15:25:20;6.20;;;2.10;;
3645;SDS011;1839;48.060;11.662;2022-07-29T15:27:49;6.53;;;2.08;;
3645;SDS011;1839;48.060;11.662;2022-07-29T15:30:16;6.28;;;1.95;;
3645;SDS011;1839;48.060;11.662;2022-07-29T15:32:44;10.05;;;2.70;;
3645;SDS011;1839;48.060;11.662;2022-07-29T15:35:11;68.28;;;5.82;;
3645;SDS011;1839;48.060;11.662;2022-07-29T15:37:38;7.55;;;2.30;;
3645;SDS011;1839;48.060;11.662;2022-07-29T15:40:06;6.50;;;2.20;;
3645;SDS011;1839;48.060;11.662;2022-07-29T15:42:34;6.03;;;2.03;;
3645;SDS011;1839;48.060;11.662;2022-07-29T15:45:03;7.93;;;1.97;;
3645;SDS011;1839;48.060;11.662;2022-07-29T15:47:31;7.80;;;2.50;;
3645;SDS011;1839;48.060;11.662;2022-07-29T15:49:58;7.63;;;2.07;;
3645;SDS011;1839;48.060;11.662;2022-07-29T15:52:25;8.20;;;2.10;;
3645;SDS011;1839;48.060;11.662;2022-07-29T15:54:54;8.40;;;2.10;;
3645;SDS011;1839;48.060;11.662;2022-07-29T15:57:21;9.20;;;2.47;;
3645;SDS011;1839;48.060;11.662;2022-07-29T15:59:49;13.00;;;2.70;;
3645;SDS011;1839;48.060;11.662;2022-07-29T16:02:17;11.10;;;2.30;;
3645;SDS011;1839;48.060;11.662;2022-07-29T16:04:45;6.77;;;2.10;;
3645;SDS011;1839;48.060;11.662;2022-07-29T16:07:12;8.83;;;2.50;;
3645;SDS011;1839;48.060;11.662;2022-07-29T16:09:39;18.73;;;3.10;;
3645;SDS011;1839;48.060;11.662;2022-07-29T16:12:07;9.90;;;3.00;;
3645;SDS011;1839;48.060;11.662;2022-07-29T16:14:34;9.80;;;2.37;;
3645;SDS011;1839;48.060;11.662;2022-07-29T16:17:01;11.60;;;2.73;;
3645;SDS011;1839;48.060;11.662;2022-07-29T16:19:30;15.87;;;3.40;;
3645;SDS011;1839;48.060;11.662;2022-07-29T16:21:57;9.50;;;2.73;;
3645;SDS011;1839;48.060;11.662;2022-07-29T16:24:24;12.00;;;2.67;;
3645;SDS011;1839;48.060;11.662;2022-07-29T16:26:53;14.27;;;2.43;;
3645;SDS011;1839;48.060;11.662;2022-07-29T16:29:21;8.87;;;2.57;;
3645;SDS011;1839;48.060;11.662;2022-07-29T16:31:48;8.90;;;2.90;;
3645;SDS011;1839;48.060;11.662;2022-07-29T16:34:16;9.40;;;3.00;;
3645;SDS011;1839;48.060;11.662;2022-07-29T16:36:45;8.67;;;2.70;;
3645;SDS011;1839;48.060;11.662;2022-07-29T16:39:12;11.97;;;2.97;;
3645;SDS011;1839;48.060;11.662;2022-07-29T16:41:39;8.40;;;2.50;;
3645;SDS011;1839;48.060;11.662;2022-07-29T16:44:07;9.47;;;2.93;;
3645;SDS011;1839;48.060;11.662;2022-07-29T16:46:34;8.90;;;2.80;;
3645;SDS011;1839;48.060;11.662;2022-07-29T16:49:01;9.70;;;2.60;;
3645;SDS011;1839;48.060;11.662;2022-07-29T16:51:29;9.80;;;2.80;;
3645;SDS011;1839;48.060;11.662;2022-07-29T16:53:57;10.50;;;3.13;;
3645;SDS011;1839;48.060;11.662;2022-07-29T16:56:25;9.30;;;2.80;;
3645;SDS011;1839;48.060;11.662;2022-07-29T16:58:52;9.60;;;2.93;;
3645;SDS011;1839;48.060;11.662;2022-07-29T17:01:19;13.17;;;3.43;;
3645;SDS011;1839;48.060;11.662;2022-07-29T17:03:46;8.70;;;2.47;;
3645;SDS011;1839;48.060;11.662;2022-07-29T17:06:32;10.00;;;3.13;;
3645;SDS011;1839;48.060;11.662;2022-07-29T17:09:01;9.83;;;3.00;;
3645;SDS011;1839;48.060;11.662;2022-07-29T17:11:29;18.53;;;3.30;;
3645;SDS011;1839;48.060;11.662;2022-07-29T17:13:56;9.23;;;2.60;;
3645;SDS011;1839;48.060;11.662;2022-07-29T17:16:23;13.37;;;3.80;;
3645;SDS011;1839;48.060;11.662;2022-07-29T17:18:51;13.50;;;5.30;;
3645;SDS011;1839;48.060;11.662;2022-07-29T17:21:18;15.43;;;4.00;;
3645;SDS011;1839;48.060;11.662;2022-07-29T17:23:45;17.93;;;4.10;;
3645;SDS011;1839;48.060;11.662;2022-07-29T17:26:14;13.33;;;5.70;;
3645;SDS011;1839;48.060;11.662;2022-07-29T17:28:41;10.10;;;3.37;;
3645;SDS011;1839;48.060;11.662;2022-07-29T17:31:09;17.23;;;3.70;;
3645;SDS011;1839;48.060;11.662;2022-07-29T17:33:36;10.30;;;3.20;;
3645;SDS011;1839;48.060;11.662;2022-07-29T17:36:03;9.23;;;2.43;;
3645;SDS011;1839;48.060;11.662;2022-07-29T17:38:50;12.90;;;2.83;;
3645;SDS011;1839;48.060;11.662;2022-07-29T17:41:19;10.30;;;3.00;;
3645;SDS011;1839;48.060;11.662;2022-07-29T17:43:47;11.53;;;2.90;;
3645;SDS011;1839;48.060;11.662;2022-07-29T17:46:14;13.40;;;2.70;;
3645;SDS011;1839;48.060;11.662;2022-07-29T17:48:41;9.97;;;2.57;;
3645;SDS011;1839;48.060;11.662;2022-07-29T17:51:09;13.33;;;3.13;;
3645;SDS011;1839;48.060;11.662;2022-07-29T17:53:36;10.00;;;2.70;;
3645;SDS011;1839;48.060;11.662;2022-07-29T17:56:04;19.87;;;4.30;;
3645;SDS011;1839;48.060;11.662;2022-07-29T17:58:33;12.20;;;3.67;;
3645;SDS011;1839;48.060;11.662;2022-07-29T18:01:00;12.90;;;4.20;;
3645;SDS011;1839;48.060;11.662;2022-07-29T18:03:27;11.93;;;3.00;;
3645;SDS011;1839;48.060;11.662;2022-07-29T18:05:54;11.93;;;2.80;;
3645;SDS011;1839;48.060;11.662;2022-07-29T18:08:22;9.53;;;2.20;;
3645;SDS011;1839;48.060;11.662;2022-07-29T18:10:49;9.73;;;2.40;;
3645;SDS011;1839;48.060;11.662;2022-07-29T18:13:17;9.67;;;2.50;;
3645;SDS011;1839;48.060;11.662;2022-07-29T18:15:45;9.30;;;2.10;;
3645;SDS011;1839;48.060;11.662;2022-07-29T18:18:13;8.57;;;2.17;;
3645;SDS011;1839;48.060;11.662;2022-07-29T18:20:42;9.97;;;2.10;;
3645;SDS011;1839;48.060;11.662;2022-07-29T18:23:09;10.53;;;2.50;;
3645;SDS011;1839;48.060;11.662;2022-07-29T18:25:37;8.60;;;2.03;;
3645;SDS011;1839;48.060;11.662;2022-07-29T18:28:04;9.70;;;2.50;;
3645;SDS011;1839;48.060;11.662;2022-07-29T18:30:32;15.50;;;2.63;;
3645;SDS011;1839;48.060;11.662;2022-07-29T18:33:02;15.97;;;2.33;;
3645;SDS011;1839;48.060;11.662;2022-07-29T18:35:30;9.20;;;2.00;;
3645;SDS011;1839;48.060;11.662;2022-07-29T18:37:57;7.80;;;1.43;;
3645;SDS011;1839;48.060;11.662;2022-07-29T18:40:24;9.97;;;1.80;;
3645;SDS011;1839;48.060;11.662;2022-07-29T18:42:51;8.17;;;1.70;;
3645;SDS011;1839;48.060;11.662;2022-07-29T18:45:19;11.60;;;3.17;;
3645;SDS011;1839;48.060;11.662;2022-07-29T18:47:46;9.70;;;2.23;;
3645;SDS011;1839;48.060;11.662;2022-07-29T18:50:15;9.37;;;2.10;;
3645;SDS011;1839;48.060;11.662;2022-07-29T18:52:43;11.33;;;3.20;;
3645;SDS011;1839;48.060;11.662;2022-07-29T18:55:11;13.13;;;3.27;;
3645;SDS011;1839;48.060;11.662;2022-07-29T18:57:38;12.67;;;4.70;;
3645;SDS011;1839;48.060;11.662;2022-07-29T19:00:06;15.10;;;7.50;;
3645;SDS011;1839;48.060;11.662;2022-07-29T19:02:33;11.00;;;2.70;;
3645;SDS011;1839;48.060;11.662;2022-07-29T19:05:02;13.53;;;2.93;;
3645;SDS011;1839;48.060;11.662;2022-07-29T19:07:30;20.37;;;8.93;;
3645;SDS011;1839;48.060;11.662;2022-07-29T19:09:58;23.00;;;15.57;;
3645;SDS011;1839;48.060;11.662;2022-07-29T19:12:25;389.67;;;202.57;;
3645;SDS011;1839;48.060;11.662;2022-07-29T19:14:52;90.67;;;77.77;;
3645;SDS011;1839;48.060;11.662;2022-07-29T19:17:20;634.93;;;282.57;;
3645;SDS011;1839;48.060;11.662;2022-07-29T19:19:47;270.70;;;170.23;;
3645;SDS011;1839;48.060;11.662;2022-07-29T19:22:17;485.13;;;271.57;;
3645;SDS011;1839;48.060;11.662;2022-07-29T19:24:47;2266.67;;;891.10;;
3645;SDS011;1839;48.060;11.662;2022-07-29T19:27:14;2266.67;;;641.80;;
3645;SDS011;1839;48.060;11.662;2022-07-29T19:29:42;2266.67;;;848.53;;
3645;SDS011;1839;48.060;11.662;2022-07-29T19:32:09;2266.67;;;999.90;;
3645;SDS011;1839;48.060;11.662;2022-07-29T19:34:37;2266.67;;;999.90;;
3645;SDS011;1839;48.060;11.662;2022-07-29T19:37:05;2266.67;;;873.97;;
3645;SDS011;1839;48.060;11.662;2022-07-29T19:39:32;2266.67;;;999.90;;
3645;SDS011;1839;48.060;11.662;2022-07-29T19:42:01;2266.67;;;999.90;;
3645;SDS011;1839;48.060;11.662;2022-07-29T19:44:29;2266.67;;;999.90;;
3645;SDS011;1839;48.060;11.662;2022-07-29T19:46:56;2266.67;;;999.90;;
3645;SDS011;1839;48.060;11.662;2022-07-29T19:49:24;2266.67;;;882.77;;
3645;SDS011;1839;48.060;11.662;2022-07-29T19:51:51;2266.67;;;999.90;;
3645;SDS011;1839;48.060;11.662;2022-07-29T19:54:18;2266.67;;;999.90;;
3645;SDS011;1839;48.060;11.662;2022-07-29T19:56:45;2266.67;;;999.90;;
3645;SDS011;1839;48.060;11.662;2022-07-29T19:59:14;2266.67;;;999.90;;
3645;SDS011;1839;48.060;11.662;2022-07-29T20:01:41;2266.67;;;999.90;;
3645;SDS011;1839;48.060;11.662;2022-07-29T20:04:08;2266.67;;;999.90;;
3645;SDS011;1839;48.060;11.662;2022-07-29T20:06:35;2266.67;;;999.90;;
3645;SDS011;1839;48.060;11.662;2022-07-29T20:09:03;2266.67;;;999.90;;
3645;SDS011;1839;48.060;11.662;2022-07-29T20:11:30;2266.67;;;999.90;;
3645;SDS011;1839;48.060;11.662;2022-07-29T20:14:00;2266.67;;;837.87;;